Time;durP1;ratioP1;P1;durP2;ratioP2;P2;SDS_P1;SDS_P2;PMS_P1;PMS_P2;Temp;Humidity;BMP_temperature;BMP_pressure;BME280_temperature;BME280_humidity;BME280_pressure;Samples;Min_cycle;Max_cycle;Signal;HPM_P1;HPM_P2
2022/06/11 00:02:44;;;;;;;7.00;2.20;;;;;;;19.64;95.58;101145.06;8338375;28;20091;-65
2022/06/11 00:06:48;;;;;;;6.40;2.33;;;;;;;19.70;96.15;101147.06;8354122;28;20044;-63
2022/06/11 00:10:49;;;;;;;7.95;1.98;;;;;;;19.80;92.96;101133.94;8354299;28;20409;-63
2022/06/11 00:14:50;;;;;;;6.00;1.98;;;;;;;19.90;91.94;101140.88;8355670;28;20033;-63
2022/06/11 00:18:54;;;;;;;5.20;1.80;;;;;;;19.80;95.13;101150.41;8353172;28;20048;-63
2022/06/11 00:22:55;;;;;;;7.75;1.67;;;;;;;19.65;97.51;101149.50;8354620;28;20499;-63
2022/06/11 00:26:57;;;;;;;8.07;1.98;;;;;;;19.52;98.37;101150.97;8354599;28;20448;-63
2022/06/11 00:30:59;;;;;;;4.35;1.85;;;;;;;19.51;98.18;101155.78;8347289;28;20041;-63
2022/06/11 00:35:03;;;;;;;4.50;1.63;;;;;;;19.30;100.00;101149.06;8354317;28;20036;-63
2022/06/11 00:39:06;;;;;;;6.57;1.80;;;;;;;19.17;100.00;101147.91;8348376;28;20037;-63
2022/06/11 00:43:08;;;;;;;4.57;1.70;;;;;;;19.15;99.34;101137.13;8339432;28;20100;-63
2022/06/11 00:47:20;;;;;;;5.53;1.90;;;;;;;19.26;97.43;101134.03;8320242;28;20036;-63
2022/06/11 00:51:23;;;;;;;5.15;1.75;;;;;;;19.24;98.08;101133.31;8331859;28;20151;-63
2022/06/11 00:55:31;;;;;;;4.70;1.90;;;;;;;19.41;99.29;101143.16;8346934;28;20036;-63
2022/06/11 00:59:36;;;;;;;10.77;2.35;;;;;;;19.21;100.00;101139.16;8355595;28;20029;-63
2022/06/11 01:03:41;;;;;;;6.22;1.83;;;;;;;19.14;100.00;101132.69;8355114;28;20109;-63
2022/06/11 01:12:25;;;;;;;3.83;2.20;;;;;;;19.26;100.00;101141.34;8315649;27;20397;-63
2022/06/11 01:16:50;;;;;;;6.50;2.13;;;;;;;19.06;100.00;101140.13;8313520;28;20123;-63
2022/06/11 01:21:08;;;;;;;8.60;2.40;;;;;;;19.06;100.00;101140.13;8331056;28;20099;-63
2022/06/11 01:25:43;;;;;;;5.70;1.90;;;;;;;19.15;100.00;101141.75;8300665;28;20042;-63
2022/06/11 01:44:51;;;;;;;8.98;2.08;;;;;;;19.31;100.00;101139.78;8311082;28;20035;-63
2022/06/11 01:49:14;;;;;;;5.70;2.35;;;;;;;19.38;100.00;101138.06;8283089;28;20065;-63
2022/06/11 01:53:43;;;;;;;3.40;2.15;;;;;;;19.39;100.00;101120.56;8282215;28;20030;-63
2022/06/11 01:58:24;;;;;;;4.18;2.00;;;;;;;19.51;99.23;101128.38;8283468;28;20112;-63
2022/06/11 02:02:41;;;;;;;4.28;2.33;;;;;;;19.44;100.00;101137.31;8317770;28;20038;-64
2022/06/11 02:07:05;;;;;;;5.38;1.85;;;;;;;19.23;100.00;101137.09;8317356;28;20065;-64
2022/06/11 02:11:13;;;;;;;4.68;2.47;;;;;;;18.93;100.00;101137.94;8313411;28;20029;-64
2022/06/11 02:15:21;;;;;;;9.00;2.30;;;;;;;19.04;100.00;101136.69;8300955;28;20570;-63
2022/06/11 02:19:33;;;;;;;6.90;2.45;;;;;;;19.02;100.00;101139.59;8312211;28;20506;-63
2022/06/11 02:23:37;;;;;;;10.90;2.42;;;;;;;18.93;100.00;101139.81;8317222;28;20033;-63
2022/06/11 02:27:43;;;;;;;5.85;2.60;;;;;;;19.06;100.00;101140.13;8317349;28;20037;-63
2022/06/11 02:31:48;;;;;;;6.00;2.20;;;;;;;19.18;100.00;101142.25;8317492;28;20033;-63
2022/06/11 02:40:10;;;;;;;7.75;2.70;;;;;;;19.22;100.00;101140.00;8393306;27;20465;-63
2022/06/11 02:44:10;;;;;;;6.82;2.53;;;;;;;19.17;100.00;101154.25;8417262;28;20094;-63
2022/06/11 02:48:12;;;;;;;5.53;2.00;;;;;;;19.16;100.00;101151.69;8416847;28;20504;-63
2022/06/11 02:52:17;;;;;;;7.90;2.33;;;;;;;19.00;100.00;101158.09;8399261;28;20596;-63
2022/06/11 02:56:18;;;;;;;6.13;2.17;;;;;;;18.93;100.00;101161.75;8385109;28;20036;-63
2022/06/11 03:00:25;;;;;;;4.78;2.53;;;;;;;18.97;100.00;101163.13;8378107;28;20049;-63
2022/06/11 03:04:28;;;;;;;6.65;2.25;;;;;;;18.86;100.00;101161.63;8374075;28;20493;-63
2022/06/11 03:08:29;;;;;;;6.18;2.10;;;;;;;18.88;100.00;101162.28;8384660;28;20036;-64
2022/06/11 03:12:30;;;;;;;6.13;2.85;;;;;;;18.64;100.00;101162.41;8390279;28;20037;-64
2022/06/11 03:16:30;;;;;;;7.55;2.47;;;;;;;18.76;100.00;101162.88;8384640;28;20037;-63
2022/06/11 03:20:31;;;;;;;9.10;3.22;;;;;;;18.45;100.00;101157.31;8390650;28;20516;-63
2022/06/11 03:24:32;;;;;;;8.45;2.90;;;;;;;18.60;100.00;101160.19;8383971;28;20039;-63
2022/06/11 03:28:33;;;;;;;6.85;2.80;;;;;;;18.66;100.00;101157.59;8384204;28;20033;-64
2022/06/11 03:32:34;;;;;;;6.63;2.83;;;;;;;18.64;100.00;101167.88;8384182;28;20041;-63
2022/06/11 03:36:36;;;;;;;7.75;2.70;;;;;;;18.57;100.00;101166.88;8383711;28;20489;-63
2022/06/11 03:40:36;;;;;;;5.47;3.28;;;;;;;18.54;100.00;101172.69;8383992;28;20033;-63
2022/06/11 03:44:37;;;;;;;8.23;3.75;;;;;;;18.59;100.00;101170.28;8383573;28;20043;-63
2022/06/11 03:48:38;;;;;;;4.20;2.83;;;;;;;18.62;100.00;101163.59;8376522;28;20037;-63
2022/06/11 03:52:39;;;;;;;6.20;2.80;;;;;;;18.55;100.00;101168.94;8353641;28;20093;-63
2022/06/11 03:56:40;;;;;;;10.47;3.70;;;;;;;18.57;100.00;101176.97;8360446;28;20059;-63
2022/06/11 04:01:42;;;;;;;9.55;2.97;;;;;;;18.59;100.00;101180.38;8361667;28;20287;-63
2022/06/11 04:05:03;;;;;;;5.20;2.92;;;;;;;18.63;100.00;101177.13;8360466;28;20383;-64
2022/06/11 04:09:08;;;;;;;6.85;2.92;;;;;;;18.69;100.00;101176.41;8361139;28;20037;-64
2022/06/11 04:13:09;;;;;;;8.60;3.08;;;;;;;18.70;100.00;101178.09;8359340;28;20443;-64
2022/06/11 04:17:16;;;;;;;10.13;3.05;;;;;;;18.73;100.00;101180.50;8360460;28;20048;-64
2022/06/11 04:21:18;;;;;;;6.80;2.80;;;;;;;18.82;100.00;101192.31;8367459;28;20049;-64
2022/06/11 04:25:18;;;;;;;4.93;2.80;;;;;;;18.97;100.00;101199.59;8360349;28;20052;-64
2022/06/11 04:29:24;;;;;;;8.55;3.00;;;;;;;19.11;100.00;101197.97;8360838;28;20095;-64
2022/06/11 04:33:24;;;;;;;8.95;3.42;;;;;;;19.09;100.00;101198.16;8360586;28;20033;-64
2022/06/11 04:37:27;;;;;;;4.63;2.90;;;;;;;19.14;100.00;101198.47;8359766;28;20037;-64
2022/06/11 04:41:28;;;;;;;6.90;2.97;;;;;;;19.20;100.00;101195.03;8353567;28;20037;-64
2022/06/11 04:45:28;;;;;;;6.47;2.70;;;;;;;19.14;100.00;101208.59;8361398;28;20037;-64
2022/06/11 04:49:28;;;;;;;6.40;2.80;;;;;;;19.13;100.00;101196.75;8364436;28;20033;-64
2022/06/11 04:53:29;;;;;;;9.40;3.17;;;;;;;19.17;100.00;101192.66;8359272;28;20452;-64
2022/06/11 04:57:29;;;;;;;7.30;2.63;;;;;;;19.23;100.00;101196.53;8369446;28;20274;-64
2022/06/11 05:01:31;;;;;;;9.60;2.78;;;;;;;19.28;100.00;101196.91;8369008;28;20040;-64
2022/06/11 05:05:31;;;;;;;9.43;2.70;;;;;;;19.41;100.00;101202.66;8390218;28;20063;-64
2022/06/11 05:09:33;;;;;;;4.65;2.70;;;;;;;19.42;100.00;101213.44;8390465;28;20060;-64
2022/06/11 05:13:34;;;;;;;9.52;3.00;;;;;;;19.64;100.00;101210.91;8389416;28;20037;-64
2022/06/11 05:17:35;;;;;;;6.30;2.67;;;;;;;19.63;100.00;101210.03;8390257;28;20039;-64
2022/06/11 05:21:35;;;;;;;8.43;2.90;;;;;;;19.72;100.00;101202.59;8373695;28;20551;-64
2022/06/11 05:25:37;;;;;;;6.18;2.60;;;;;;;19.81;100.00;101206.97;8358090;28;20040;-64
2022/06/11 05:29:52;;;;;;;6.05;2.40;;;;;;;19.98;100.00;101203.09;8358758;28;20037;-64
2022/06/11 05:33:52;;;;;;;8.85;3.15;;;;;;;20.23;100.00;101202.72;8350711;28;20037;-64
2022/06/11 05:37:55;;;;;;;7.82;2.95;;;;;;;20.24;100.00;101204.41;8369713;28;20047;-64
2022/06/11 05:41:56;;;;;;;10.55;3.33;;;;;;;20.34;100.00;101206.91;8358117;28;20041;-64
2022/06/11 05:46:02;;;;;;;5.38;2.38;;;;;;;20.35;100.00;101209.47;8343485;28;20075;-64
2022/06/11 05:50:03;;;;;;;7.47;2.85;;;;;;;20.40;100.00;101215.22;8372494;28;20115;-64
2022/06/11 05:54:09;;;;;;;9.77;3.05;;;;;;;20.53;100.00;101209.09;8359368;28;20036;-64
2022/06/11 05:58:14;;;;;;;7.18;2.78;;;;;;;20.74;98.47;101214.72;8357612;28;20041;-64
2022/06/11 06:02:19;;;;;;;7.07;2.72;;;;;;;20.94;91.52;101221.34;8357489;28;20132;-64
2022/06/11 06:06:19;;;;;;;;;;;;;;;21.06;91.80;101231.69;8357715;28;20040;-64
2022/06/11 06:10:20;;;;;;;6.87;2.20;;;;;;;21.23;90.49;101224.09;8357337;28;19971;-64
2022/06/11 06:14:21;;;;;;;6.20;2.58;;;;;;;21.03;91.83;101226.59;8356772;28;20041;-64
2022/06/11 06:18:21;;;;;;;7.13;2.92;;;;;;;20.98;94.76;101228.22;8356817;28;20045;-64
2022/06/11 06:22:22;;;;;;;6.88;2.30;;;;;;;21.23;91.76;101224.09;8355820;28;20048;-64
2022/06/11 06:26:22;;;;;;;6.10;2.40;;;;;;;21.35;90.56;101228.06;8374604;28;20028;-64
2022/06/11 06:30:22;;;;;;;3.30;1.92;;;;;;;21.26;90.54;101232.81;8388950;28;20033;-64
2022/06/11 06:34:23;;;;;;;8.77;2.23;;;;;;;21.49;89.09;101224.41;8388279;28;20507;-64
2022/06/11 06:38:23;;;;;;;5.63;1.95;;;;;;;21.55;87.14;101228.28;8399708;28;20297;-64
2022/06/11 06:42:24;;;;;;;5.75;2.58;;;;;;;21.86;88.09;101237.97;8392555;28;20120;-64
2022/06/11 06:46:24;;;;;;;8.38;3.03;;;;;;;22.20;87.38;101240.03;8355373;28;20499;-64
2022/06/11 06:50:25;;;;;;;6.95;2.45;;;;;;;22.41;86.50;101238.06;8352554;28;20037;-65
2022/06/11 06:54:25;;;;;;;4.35;2.22;;;;;;;22.51;83.72;101244.13;8327954;28;20041;-65
2022/06/11 06:58:25;;;;;;;10.05;3.13;;;;;;;22.78;81.37;101246.00;8344021;28;20524;-65
2022/06/11 07:02:37;;;;;;;8.95;3.08;;;;;;;22.89;79.99;101242.72;8364107;28;20041;-64
2022/06/11 07:06:37;;;;;;;6.47;2.67;;;;;;;23.04;80.76;101251.72;8351989;28;20056;-64
2022/06/11 07:10:38;;;;;;;5.05;2.03;;;;;;;23.38;80.18;101256.34;8353308;28;20041;-64
2022/06/11 07:14:38;;;;;;;4.25;2.38;;;;;;;23.33;79.75;101247.88;8335585;28;20037;-64
2022/06/11 07:18:44;;;;;;;4.20;2.03;;;;;;;23.76;78.01;101246.53;8357728;28;20029;-64
2022/06/11 07:22:54;;;;;;;2.53;1.40;;;;;;;23.70;77.30;101246.50;8349645;28;20356;-65
2022/06/11 07:26:59;;;;;;;6.32;2.60;;;;;;;23.70;75.95;101240.97;8362232;28;20559;-64
2022/06/11 07:31:00;;;;;;;6.43;1.80;;;;;;;24.11;76.01;101244.47;8363361;28;20033;-64
2022/06/11 07:35:02;;;;;;;9.45;2.13;;;;;;;24.03;74.21;101242.78;8359536;28;20187;-64
2022/06/11 07:39:03;;;;;;;4.07;1.75;;;;;;;24.14;74.27;101238.53;8362044;28;20040;-64
2022/06/11 07:43:06;;;;;;;7.30;1.70;;;;;;;24.63;74.70;101227.91;8393376;28;20111;-64
2022/06/11 07:47:07;;;;;;;6.47;1.90;;;;;;;24.59;74.86;101243.22;8351950;28;20090;-64
2022/06/11 07:51:07;;;;;;;3.75;1.60;;;;;;;24.61;71.34;101235.56;8354610;28;20044;-64
2022/06/11 07:55:10;;;;;;;3.90;1.45;;;;;;;23.99;71.74;101240.63;8337409;28;20045;-64
2022/06/11 07:59:10;;;;;;;7.40;1.95;;;;;;;25.09;70.37;101242.53;8346200;28;20040;-64
2022/06/11 08:03:11;;;;;;;1.95;1.00;;;;;;;25.25;68.66;101236.50;8365143;28;20060;-64
2022/06/11 08:07:11;;;;;;;7.00;1.40;;;;;;;25.58;67.66;101245.56;8348265;28;20134;-64
2022/06/11 08:11:12;;;;;;;3.85;1.60;;;;;;;25.22;69.98;101239.69;8355138;28;20060;-64
2022/06/11 08:15:12;;;;;;;5.65;1.65;;;;;;;25.16;70.29;101251.69;8357826;28;20512;-64
2022/06/11 08:19:13;;;;;;;3.30;1.27;;;;;;;25.02;69.02;101244.47;8357313;28;20037;-64
2022/06/11 08:23:14;;;;;;;2.42;1.15;;;;;;;25.30;69.67;101245.00;8348917;28;20037;-64
2022/06/11 08:27:14;;;;;;;4.78;1.40;;;;;;;25.77;68.75;101249.31;8373864;28;20048;-63
2022/06/11 08:31:15;;;;;;;2.90;1.30;;;;;;;25.27;71.05;101252.88;8353457;28;20089;-63
2022/06/11 08:35:18;;;;;;;4.55;1.63;;;;;;;26.01;69.93;101249.38;8357263;28;20070;-63
2022/06/11 08:39:18;;;;;;;4.30;1.35;;;;;;;25.84;68.05;101256.50;8354761;28;20079;-63
2022/06/11 08:43:26;;;;;;;7.77;1.90;;;;;;;25.12;67.46;101250.38;8356872;28;20552;-63
2022/06/11 08:47:34;;;;;;;4.97;2.08;;;;;;;24.99;68.85;101251.28;8345469;28;20616;-64
2022/06/11 08:51:58;;;;;;;8.20;1.55;;;;;;;25.64;68.57;101252.97;8343215;28;20036;-63
2022/06/11 08:55:58;;;;;;;;;;;;;;;25.24;72.61;101248.66;8342623;28;20048;-63
2022/06/11 09:04:39;;;;;;;6.65;3.20;;;;;;;23.89;78.94;101245.69;8318406;27;20404;-65
2022/06/11 09:09:02;;;;;;;8.68;3.22;;;;;;;23.54;81.41;101258.75;8303056;28;20119;-65
2022/06/11 09:13:43;;;;;;;6.10;3.43;;;;;;;23.35;80.54;101253.16;8313088;28;20033;-65
2022/06/11 09:18:08;;;;;;;4.85;3.42;;;;;;;23.68;78.74;101237.56;8315264;28;20358;-65
2022/06/11 09:22:48;;;;;;;7.47;3.33;;;;;;;24.02;77.41;101234.69;8312482;28;20063;-64
2022/06/11 09:27:00;;;;;;;6.28;3.42;;;;;;;23.95;77.27;101250.41;8304877;28;20049;-64
2022/06/11 09:31:14;;;;;;;5.25;3.20;;;;;;;23.94;78.22;101260.56;8316335;28;20033;-65
2022/06/11 09:35:24;;;;;;;7.50;3.45;;;;;;;23.95;77.34;101256.81;8315900;28;20449;-65
2022/06/11 09:39:36;;;;;;;7.72;2.92;;;;;;;23.70;78.72;101247.38;8315787;28;20044;-65
2022/06/11 09:44:03;;;;;;;8.07;3.47;;;;;;;23.81;77.67;101260.56;8314015;28;20045;-65
2022/06/11 09:48:33;;;;;;;11.77;3.20;;;;;;;24.93;75.26;101262.38;8308363;28;20095;-65
2022/06/11 09:52:44;;;;;;;5.13;3.08;;;;;;;24.73;73.30;101267.91;8345981;28;20030;-64
2022/06/11 09:57:17;;;;;;;5.10;2.65;;;;;;;24.34;76.98;101267.06;8316477;28;20042;-64
2022/06/11 10:01:28;;;;;;;8.73;3.08;;;;;;;24.04;75.09;101263.84;8312089;28;20188;-63
2022/06/11 10:05:52;;;;;;;3.75;2.70;;;;;;;26.58;69.65;101265.81;8316549;28;20038;-63
2022/06/11 10:10:02;;;;;;;5.60;2.22;;;;;;;29.02;61.03;101266.81;8320321;28;20586;-62
2022/06/11 10:14:42;;;;;;;4.10;1.90;;;;;;;30.72;56.94;101275.06;8311572;28;20030;-63
2022/06/11 10:18:34;;;;;;;3.78;1.52;;;;;;;30.13;56.14;101270.06;8306153;28;20441;-63
2022/06/11 10:23:01;;;;;;;3.20;1.83;;;;;;;30.28;55.43;101262.84;8296389;28;20042;-64
2022/06/11 10:27:08;;;;;;;2.78;1.67;;;;;;;31.39;55.07;101267.47;8296525;28;20057;-64
2022/06/11 10:31:16;;;;;;;4.25;1.73;;;;;;;29.84;55.82;101260.88;8296318;28;20041;-63
2022/06/11 10:35:21;;;;;;;4.78;1.92;;;;;;;27.69;61.02;101258.22;8296176;28;20038;-63
2022/06/11 10:39:29;;;;;;;3.85;1.33;;;;;;;29.07;58.25;101258.59;8296439;28;20425;-64
2022/06/11 10:43:44;;;;;;;4.28;1.90;;;;;;;30.68;54.17;101250.69;8296914;28;20065;-64
2022/06/11 10:47:50;;;;;;;7.55;1.60;;;;;;;29.13;56.98;101256.78;8286863;28;20042;-63
2022/06/11 10:52:06;;;;;;;2.75;1.15;;;;;;;29.11;57.30;101253.38;8291796;28;20058;-63
2022/06/11 10:56:17;;;;;;;3.42;0.98;;;;;;;31.19;53.97;101244.81;8292616;28;20121;-63
2022/06/11 11:00:23;;;;;;;3.83;1.58;;;;;;;32.16;53.69;101249.41;8294622;28;20437;-57
2022/06/11 11:04:36;;;;;;;4.07;1.45;;;;;;;29.07;58.41;101247.47;8294202;28;20383;-63
2022/06/11 11:08:52;;;;;;;4.45;1.73;;;;;;;27.39;62.27;101241.53;8278601;28;20042;-63
2022/06/11 11:12:57;;;;;;;3.35;1.73;;;;;;;30.80;57.79;101235.56;8283254;28;20057;-63
2022/06/11 11:17:01;;;;;;;4.47;2.85;;;;;;;30.83;54.69;101232.25;8285973;28;20037;-64
2022/06/11 11:21:02;;;;;;;4.45;3.30;;;;;;;27.94;60.99;101233.94;8288250;28;20030;-63
2022/06/11 11:25:11;;;;;;;6.30;2.92;;;;;;;28.77;60.09;101234.72;8287922;28;20689;-63
2022/06/11 11:29:17;;;;;;;4.75;2.95;;;;;;;27.81;61.71;101237.72;8287816;28;20046;-63
2022/06/11 11:33:25;;;;;;;6.35;2.80;;;;;;;28.92;60.29;101235.06;8290808;28;20049;-63
2022/06/11 11:37:32;;;;;;;5.55;2.70;;;;;;;30.61;55.71;101220.13;8286744;28;20066;-63
2022/06/11 11:41:35;;;;;;;9.07;3.55;;;;;;;28.04;60.43;101234.22;8286027;28;20046;-62
2022/06/11 11:45:58;;;;;;;4.72;3.50;;;;;;;26.91;63.62;101231.34;8285185;28;20072;-62
2022/06/11 11:50:21;;;;;;;4.97;3.45;;;;;;;26.25;66.56;101225.53;8285316;28;20041;-62
2022/06/11 11:54:23;;;;;;;3.90;3.25;;;;;;;27.17;67.31;101225.53;8284039;28;20063;-62
2022/06/11 11:58:34;;;;;;;7.88;3.50;;;;;;;28.65;59.25;101215.22;8286691;28;20046;-63
2022/06/11 12:02:46;;;;;;;3.95;3.00;;;;;;;29.78;57.37;101214.44;8283586;28;20461;-63
2022/06/11 12:06:54;;;;;;;5.65;2.80;;;;;;;28.31;60.00;101229.94;8281772;28;20413;-63
2022/06/11 12:11:00;;;;;;;5.18;2.50;;;;;;;26.76;65.10;101223.41;8283178;28;20449;-63
2022/06/11 12:15:23;;;;;;;4.70;2.63;;;;;;;26.37;65.69;101213.50;8282806;28;20128;-63
2022/06/11 12:23:49;;;;;;;4.85;2.50;;;;;;;26.90;64.66;101218.56;8390661;27;20397;-62
2022/06/11 12:27:50;;;;;;;5.97;2.13;;;;;;;26.28;66.48;101214.84;8373308;28;20029;-62
2022/06/11 12:31:54;;;;;;;6.07;2.53;;;;;;;26.41;66.21;101220.28;8391997;27;20036;-62
2022/06/11 12:36:10;;;;;;;5.72;2.60;;;;;;;26.34;66.79;101213.94;8356618;28;20037;-62
2022/06/11 12:40:34;;;;;;;3.75;2.00;;;;;;;26.29;66.13;101208.22;8377881;27;20798;-62
2022/06/11 12:45:04;;;;;;;3.70;1.67;;;;;;;25.92;67.42;101209.13;8364900;27;20048;-63
2022/06/11 12:53:45;;;;;;;3.70;1.80;;;;;;;25.73;66.97;101212.88;8344695;27;20936;-62
2022/06/11 12:58:15;;;;;;;6.90;1.77;;;;;;;25.81;68.17;101207.06;8344909;28;20048;-62
2022/06/11 13:02:30;;;;;;;4.72;2.10;;;;;;;26.27;64.38;101202.06;8342300;28;20411;-62
2022/06/11 13:06:45;;;;;;;3.20;1.88;;;;;;;26.31;70.08;101203.31;8348670;28;20072;-61
2022/06/11 13:15:34;;;;;;;7.03;1.90;;;;;;;26.06;64.81;101198.81;8371195;28;20432;-61
2022/06/11 13:19:45;;;;;;;5.13;1.95;;;;;;;26.55;67.90;101199.69;8337928;28;20045;-61
2022/06/11 13:24:11;;;;;;;4.82;1.60;;;;;;;26.53;67.79;101193.50;8346281;28;20549;-61
2022/06/11 13:28:29;;;;;;;3.13;1.38;;;;;;;26.32;64.04;101193.91;8349567;28;20036;-61
2022/06/11 13:32:58;;;;;;;2.13;1.10;;;;;;;26.26;63.17;101192.03;8351620;28;20065;-61
2022/06/11 13:37:38;;;;;;;5.57;1.77;;;;;;;25.92;65.05;101192.50;8340687;28;20079;-61
2022/06/11 13:46:33;;;;;;;4.13;1.48;;;;;;;26.29;64.73;101186.03;8380346;27;20405;-61
2022/06/11 13:50:57;;;;;;;4.05;1.40;;;;;;;26.14;64.21;101193.00;8366530;28;20457;-61
2022/06/11 13:55:13;;;;;;;3.67;1.38;;;;;;;26.26;64.39;101183.72;8382357;28;20040;-63
2022/06/11 14:08:18;;;;;;;3.50;1.13;;;;;;;26.03;64.54;101169.63;8382013;27;20395;-61
2022/06/11 14:12:55;;;;;;;4.25;1.95;;;;;;;26.10;65.10;101170.41;8364858;28;20041;-61
2022/06/11 14:16:55;;;;;;;2.47;1.00;;;;;;;26.30;68.51;101173.88;8335379;28;20047;-62
2022/06/11 14:21:02;;;;;;;2.97;1.25;;;;;;;26.19;63.48;101166.28;8306299;28;20049;-59
2022/06/11 14:25:03;;;;;;;3.72;0.70;;;;;;;26.20;64.16;101164.38;8300867;28;20069;-62
2022/06/11 14:29:05;;;;;;;4.30;0.90;;;;;;;26.63;61.43;101163.31;8329523;28;20327;-62
2022/06/11 14:37:31;;;;;;;1.65;1.00;;;;;;;26.79;60.18;101162.75;8349010;27;20396;-62
2022/06/11 14:45:49;;;;;;;2.90;0.75;;;;;;;26.83;66.82;101162.28;8454495;27;20116;-62
2022/06/11 14:49:51;;;;;;;3.28;1.13;;;;;;;26.97;63.67;101158.25;8439499;28;20040;-62
2022/06/11 14:53:58;;;;;;;2.67;0.65;;;;;;;26.98;60.31;101148.88;8442374;28;20035;-62
2022/06/11 14:58:20;;;;;;;2.70;0.90;;;;;;;26.88;62.99;101145.75;8442292;28;20044;-62
2022/06/11 15:06:41;;;;;;;2.25;0.93;;;;;;;26.87;62.02;101146.84;8315588;27;20466;-62
2022/06/11 15:10:48;;;;;;;2.47;0.80;;;;;;;26.50;60.00;101130.16;8306709;28;20030;-62
2022/06/11 15:15:13;;;;;;;15.95;4.38;;;;;;;26.99;62.34;101145.00;8337413;28;20514;-62
2022/06/11 15:19:19;;;;;;;5.60;1.23;;;;;;;27.25;61.79;101144.69;8375027;28;20029;-62
2022/06/11 15:23:28;;;;;;;2.42;0.70;;;;;;;26.90;62.12;101146.41;8341145;28;20461;-62
2022/06/11 15:27:31;;;;;;;4.07;1.02;;;;;;;26.99;58.51;101134.75;8336812;28;20097;-62
2022/06/11 15:31:33;;;;;;;2.20;1.07;;;;;;;26.96;59.60;101140.78;8343978;28;20052;-62
2022/06/11 15:35:40;;;;;;;3.28;0.85;;;;;;;26.89;58.96;101139.97;8334893;28;20433;-62
2022/06/11 15:39:44;;;;;;;1.60;0.90;;;;;;;27.02;62.30;101144.53;8342724;28;20029;-62
2022/06/11 15:43:51;;;;;;;3.92;1.60;;;;;;;27.08;60.33;101138.06;8332253;28;20045;-64
2022/06/11 15:48:05;;;;;;;2.47;0.90;;;;;;;27.27;61.15;101137.84;8343735;28;20091;-62
2022/06/11 15:52:24;;;;;;;;;;;;;;;27.12;61.52;101128.16;8339838;28;20063;-62
2022/06/11 15:56:32;;;;;;;3.13;0.75;;;;;;;27.02;59.80;101125.09;8337583;28;19931;-62
2022/06/11 16:00:38;;;;;;;3.05;0.90;;;;;;;26.72;60.82;101125.06;8340129;28;20179;-62
2022/06/11 16:04:45;;;;;;;2.55;1.08;;;;;;;26.57;61.16;101130.94;8325092;28;20498;-63
2022/06/11 16:08:50;;;;;;;3.03;0.82;;;;;;;26.43;60.96;101128.53;8319827;28;20039;-63
2022/06/11 16:12:52;;;;;;;2.10;0.82;;;;;;;26.16;61.87;101132.63;8316147;28;20061;-63
2022/06/11 16:17:00;;;;;;;4.72;0.90;;;;;;;26.11;61.06;101136.09;8305315;28;20057;-63
2022/06/11 16:21:03;;;;;;;3.50;0.75;;;;;;;25.85;60.99;101136.28;8311271;28;20065;-62
2022/06/11 16:25:07;;;;;;;2.55;1.00;;;;;;;25.78;62.30;101135.47;8309416;28;20179;-62
2022/06/11 16:29:14;;;;;;;2.95;0.98;;;;;;;25.64;62.86;101128.31;8324516;28;20088;-62
2022/06/11 16:33:18;;;;;;;3.58;0.90;;;;;;;25.70;62.54;101127.44;8325917;28;20068;-62
2022/06/11 16:37:23;;;;;;;2.42;0.57;;;;;;;25.78;62.13;101132.72;8321958;28;20087;-62
2022/06/11 16:43:01;;;;;;;1.33;0.70;;;;;;;25.73;61.35;101126.97;8322640;28;20072;-62
2022/06/11 16:45:53;;;;;;;4.40;0.90;;;;;;;25.86;62.38;101121.31;8346318;28;20049;-61
2022/06/11 16:59:01;;;;;;;2.33;1.17;;;;;;;25.17;62.82;101119.63;8316235;28;20501;-63
2022/06/11 17:03:08;;;;;;;2.28;0.90;;;;;;;25.04;63.03;101124.16;8346288;28;20041;-63
2022/06/11 17:11:21;;;;;;;3.90;0.73;;;;;;;24.87;64.07;101138.72;8325399;27;20389;-61
2022/06/11 17:15:27;;;;;;;4.78;0.95;;;;;;;24.86;64.08;101140.63;8328115;28;20063;-61
2022/06/11 17:19:27;;;;;;;3.15;1.50;;;;;;;24.96;65.17;101146.56;8333619;28;20141;-61
2022/06/11 17:23:33;;;;;;;4.93;1.23;;;;;;;24.99;65.83;101139.75;8331857;28;20030;-61
2022/06/11 17:27:35;;;;;;;4.13;0.90;;;;;;;24.75;64.59;101143.22;8310748;28;20116;-61
2022/06/11 17:31:38;;;;;;;2.95;1.17;;;;;;;24.77;65.53;101143.88;8309678;28;20144;-61
2022/06/11 17:35:39;;;;;;;5.00;0.95;;;;;;;24.68;66.02;101147.94;8312638;28;20034;-61
2022/06/11 17:39:39;;;;;;;4.93;1.10;;;;;;;24.46;65.03;101149.22;8312417;28;20068;-61
2022/06/11 17:43:40;;;;;;;3.80;0.90;;;;;;;24.46;65.98;101150.06;8314612;28;20038;-62
2022/06/11 17:47:40;;;;;;;8.55;1.30;;;;;;;24.46;65.32;101133.47;8318595;28;20050;-62
2022/06/11 17:51:43;;;;;;;3.28;1.20;;;;;;;24.36;66.21;101143.28;8319132;28;20379;-62
2022/06/11 17:55:44;;;;;;;4.20;1.17;;;;;;;24.33;69.29;101144.56;8317643;28;20148;-62
2022/06/11 17:59:46;;;;;;;3.35;1.20;;;;;;;24.45;66.73;101148.38;8314609;28;20775;-62
2022/06/11 18:03:47;;;;;;;2.28;1.00;;;;;;;24.42;65.88;101146.03;8313605;28;20052;-62
2022/06/11 18:07:49;;;;;;;6.85;1.10;;;;;;;24.37;64.97;101145.00;8315281;28;20740;-62
2022/06/11 18:11:49;;;;;;;4.70;1.08;;;;;;;24.27;65.59;101156.47;8315175;28;20147;-62
2022/06/11 18:15:53;;;;;;;3.53;1.35;;;;;;;24.19;66.91;101153.09;8312531;28;20041;-62
2022/06/11 18:19:54;;;;;;;8.00;1.53;;;;;;;24.08;67.17;101150.94;8301756;28;20034;-62
2022/06/11 18:25:26;;;;;;;4.40;1.55;;;;;;;23.96;67.94;101153.50;8292039;28;20064;-62
2022/06/11 18:28:15;;;;;;;1.95;0.90;;;;;;;23.94;66.99;101149.22;8292111;28;20035;-62
2022/06/11 18:32:15;;;;;;;11.57;7.05;;;;;;;23.88;67.78;101150.09;8295561;28;20331;-62
2022/06/11 18:36:16;;;;;;;4.28;1.60;;;;;;;23.81;68.45;101151.97;8288820;28;20037;-62
2022/06/11 18:40:20;;;;;;;2.30;1.00;;;;;;;23.83;67.61;101158.13;8290404;28;20064;-62
2022/06/11 18:44:21;;;;;;;3.17;1.08;;;;;;;23.79;68.42;101156.88;8289619;28;20121;-62
2022/06/11 18:48:21;;;;;;;7.43;1.83;;;;;;;23.77;68.18;101153.44;8287879;28;20046;-63
2022/06/11 18:52:22;;;;;;;4.87;1.53;;;;;;;23.78;67.96;101160.69;8284706;28;20217;-63
2022/06/11 18:56:23;;;;;;;4.32;1.55;;;;;;;23.71;67.92;101148.78;8289621;28;20331;-63
2022/06/11 19:00:26;;;;;;;4.28;1.55;;;;;;;23.68;68.19;101163.88;8287738;28;20096;-63
2022/06/11 19:04:27;;;;;;;3.92;0.88;;;;;;;23.65;67.85;101158.75;8287189;28;20037;-63
2022/06/11 19:08:27;;;;;;;5.97;1.65;;;;;;;23.67;67.68;101175.13;8290709;28;20038;-63
2022/06/11 19:12:28;;;;;;;3.85;0.82;;;;;;;23.59;68.28;101161.50;8291242;28;20046;-63
2022/06/11 19:16:28;;;;;;;2.78;1.13;;;;;;;23.52;68.68;101171.69;8293035;28;20034;-63
2022/06/11 19:20:32;;;;;;;3.05;1.23;;;;;;;23.39;68.39;101166.13;8292142;28;20044;-63
2022/06/11 19:24:33;;;;;;;;;;;;;;;23.35;69.95;101175.88;8320872;28;20033;-63
2022/06/11 19:28:34;;;;;;;2.47;1.10;;;;;;;23.23;69.03;101177.53;8325572;28;20385;-63
2022/06/11 19:32:35;;;;;;;7.32;1.40;;;;;;;23.19;68.67;101183.44;8289950;28;20054;-63
2022/06/11 19:36:40;;;;;;;4.70;1.30;;;;;;;23.24;68.86;101176.47;8290788;28;20041;-63
2022/06/11 19:40:43;;;;;;;6.68;1.33;;;;;;;23.21;69.27;101178.56;8291319;28;20473;-63
2022/06/11 19:44:52;;;;;;;3.03;1.40;;;;;;;23.06;70.21;101180.59;8289218;28;20084;-63
2022/06/11 19:48:53;;;;;;;7.40;1.83;;;;;;;23.08;69.59;101185.91;8289460;28;20285;-63
2022/06/11 19:52:53;;;;;;;4.82;1.30;;;;;;;22.99;70.38;101199.03;8289492;28;20065;-63
2022/06/11 19:56:54;;;;;;;6.57;1.33;;;;;;;22.92;71.28;101192.66;8290054;28;20062;-63
2022/06/11 20:00:55;;;;;;;4.60;1.40;;;;;;;22.90;70.94;101189.22;8289852;28;20273;-63
2022/06/11 20:04:55;;;;;;;7.70;1.48;;;;;;;22.83;70.81;101199.38;8288792;28;20273;-63
2022/06/11 20:08:57;;;;;;;4.95;1.35;;;;;;;22.76;71.28;101197.66;8288494;28;20072;-63
2022/06/11 20:12:58;;;;;;;4.45;1.48;;;;;;;22.69;71.93;101211.38;8289799;28;20045;-63
2022/06/11 20:16:58;;;;;;;8.48;1.40;;;;;;;22.47;74.25;101204.19;8294332;28;20132;-63
2022/06/11 20:20:58;;;;;;;4.53;1.30;;;;;;;22.48;74.39;101205.88;8313852;28;20044;-63
2022/06/11 20:24:59;;;;;;;6.57;1.83;;;;;;;22.26;75.40;101204.25;8316678;28;20303;-63
2022/06/11 20:28:59;;;;;;;8.63;2.75;;;;;;;22.42;73.17;101206.69;8307162;28;20046;-63